Time;durP1;ratioP1;P1;durP2;ratioP2;P2;SDS_P1;SDS_P2;PMS_P1;PMS_P2;Temp;Humidity;BMP_temperature;BMP_pressure;BME280_temperature;BME280_humidity;BME280_pressure;Samples;Min_cycle;Max_cycle;Signal;HPM_P1;HPM_P2
2022/08/28 00:01:46;;;;;;;6.10;3.10;;;19.20;1.00;;;;;;5024760;28;20386;-79
2022/08/28 00:04:16;;;;;;;4.90;3.43;;;19.20;1.00;;;;;;5032722;28;20410;-79
2022/08/28 00:06:46;;;;;;;3.63;3.30;;;19.20;1.00;;;;;;5027298;28;20411;-79
2022/08/28 00:09:11;;;;;;;6.80;4.10;;;19.20;1.00;;;;;;5022471;28;20729;-73
2022/08/28 00:11:38;;;;;;;6.40;3.93;;;19.30;1.00;;;;;;5023691;28;20430;-73
2022/08/28 00:14:07;;;;;;;3.47;3.17;;;19.30;1.00;;;;;;5024618;28;20697;-73
2022/08/28 00:16:34;;;;;;;3.87;3.40;;;19.40;1.00;;;;;;5030864;28;20456;-73
2022/08/28 00:19:00;;;;;;;5.47;3.10;;;19.40;1.00;;;;;;5021254;28;20828;-73
2022/08/28 00:21:28;;;;;;;4.50;3.13;;;19.30;1.00;;;;;;5035440;28;20927;-73
2022/08/28 00:23:54;;;;;;;3.20;2.90;;;19.40;1.00;;;;;;5027755;28;20427;-73
2022/08/28 00:29:06;;;;;;;8.90;2.90;;;19.50;1.00;;;;;;5023357;28;20390;-73
2022/08/28 00:31:33;;;;;;;6.80;3.47;;;19.60;1.00;;;;;;5021632;28;20448;-73
2022/08/28 00:34:01;;;;;;;5.30;3.43;;;19.70;1.00;;;;;;5016677;28;20510;-73
2022/08/28 00:36:29;;;;;;;6.40;3.23;;;19.70;1.00;;;;;;5021845;28;20387;-73
2022/08/28 00:38:59;;;;;;;6.00;2.70;;;19.80;1.00;;;;;;5035336;28;20841;-79
2022/08/28 00:41:40;;;;;;;6.67;3.23;;;19.90;1.00;;;;;;5020980;28;20744;-79
2022/08/28 00:44:35;;;;;;;5.13;3.07;;;19.80;1.00;;;;;;5026465;28;20926;-79
2022/08/28 00:47:01;;;;;;;6.13;2.93;;;19.90;1.00;;;;;;5023443;28;20408;-79
2022/08/28 00:49:34;;;;;;;4.43;3.27;;;19.90;1.00;;;;;;5032911;28;20392;-79
2022/08/28 00:52:27;;;;;;;6.70;2.97;;;20.00;1.00;;;;;;5023789;28;20444;-79
2022/08/28 00:55:02;;;;;;;6.10;3.00;;;20.00;1.00;;;;;;5015188;28;20939;-73
2022/08/28 00:57:36;;;;;;;4.10;3.13;;;20.00;1.00;;;;;;5020417;28;20440;-73
2022/08/28 01:00:08;;;;;;;4.07;2.60;;;20.10;1.00;;;;;;5023292;28;20487;-73
2022/08/28 01:02:40;;;;;;;6.77;3.20;;;20.10;1.00;;;;;;5018503;28;20467;-73
2022/08/28 01:05:08;;;;;;;6.57;3.00;;;20.10;1.00;;;;;;5025641;28;20907;-73
2022/08/28 01:07:47;;;;;;;10.03;2.83;;;20.20;1.00;;;;;;5030213;28;20908;-73
2022/08/28 01:10:57;;;;;;;7.00;3.13;;;20.20;1.00;;;;;;5027416;28;20942;-79
2022/08/28 01:13:25;;;;;;;4.93;2.60;;;20.10;1.00;;;;;;5020553;28;20468;-79
2022/08/28 01:15:52;;;;;;;5.50;3.20;;;20.20;1.00;;;;;;5017435;28;20530;-80
2022/08/28 01:18:20;;;;;;;7.97;3.00;;;20.20;1.00;;;;;;5017480;28;20397;-80
2022/08/28 01:21:04;;;;;;;4.10;2.50;;;20.20;1.00;;;;;;5025039;28;20458;-79
2022/08/28 01:24:15;;;;;;;8.07;3.33;;;20.20;1.00;;;;;;5032192;28;20423;-79
2022/08/28 01:26:52;;;;;;;5.40;2.60;;;20.20;1.00;;;;;;5020645;28;20418;-79
2022/08/28 01:29:39;;;;;;;7.07;3.77;;;20.20;1.00;;;;;;5020122;28;20409;-79
2022/08/28 01:32:05;;;;;;;4.97;2.90;;;20.10;1.00;;;;;;5024780;28;20414;-79
2022/08/28 01:35:15;;;;;;;6.33;2.93;;;20.10;1.00;;;;;;5022884;28;20492;-79
2022/08/28 01:37:46;;;;;;;8.53;2.63;;;20.00;1.00;;;;;;5014172;28;20578;-79
2022/08/28 01:40:34;;;;;;;3.17;2.70;;;20.00;1.00;;;;;;5014703;28;20421;-79
2022/08/28 01:43:16;;;;;;;3.23;2.90;;;20.00;1.00;;;;;;5020133;28;20776;-79
2022/08/28 01:46:04;;;;;;;4.37;3.10;;;20.00;1.00;;;;;;5017457;28;20436;-79
2022/08/28 01:48:46;;;;;;;6.10;2.90;;;20.00;1.00;;;;;;5033153;28;20490;-80
2022/08/28 01:51:28;;;;;;;5.37;3.13;;;20.00;1.00;;;;;;5020908;28;20950;-79
2022/08/28 01:54:21;;;;;;;3.87;2.97;;;20.00;1.00;;;;;;5025640;28;20582;-79
2022/08/28 01:56:52;;;;;;;4.67;3.23;;;19.90;1.00;;;;;;5033640;28;20374;-79
2022/08/28 01:59:22;;;;;;;3.83;3.10;;;19.90;1.00;;;;;;5014727;28;20406;-79
2022/08/28 02:01:52;;;;;;;5.83;3.07;;;20.00;1.00;;;;;;5026280;28;20448;-79
2022/08/28 02:04:28;;;;;;;5.50;3.03;;;20.00;1.00;;;;;;5016019;28;20950;-79
2022/08/28 02:06:58;;;;;;;4.00;2.53;;;20.00;1.00;;;;;;5013601;28;20493;-79
2022/08/28 02:09:23;;;;;;;6.50;3.20;;;20.00;1.00;;;;;;5024798;28;20428;-73
2022/08/28 02:11:49;;;;;;;6.70;2.97;;;20.00;1.00;;;;;;5028145;28;20487;-74
2022/08/28 02:14:16;;;;;;;2.77;2.57;;;20.00;1.00;;;;;;5030618;28;20719;-73
2022/08/28 02:16:41;;;;;;;8.90;3.10;;;20.00;1.00;;;;;;5030822;28;20761;-73
2022/08/28 02:19:10;;;;;;;11.87;2.80;;;20.00;1.00;;;;;;5042674;28;20413;-73
2022/08/28 02:21:36;;;;;;;11.80;3.70;;;19.90;1.00;;;;;;5025811;28;20609;-73
2022/08/28 02:24:03;;;;;;;8.20;3.50;;;20.00;1.00;;;;;;5023068;28;20425;-79
2022/08/28 02:26:51;;;;;;;4.90;2.80;;;20.00;1.00;;;;;;5021878;28;20385;-79
2022/08/28 02:29:28;;;;;;;6.27;2.70;;;19.90;1.00;;;;;;5025509;28;20435;-79
2022/08/28 02:31:58;;;;;;;6.20;3.00;;;20.00;1.00;;;;;;5037224;28;20921;-79
2022/08/28 02:34:35;;;;;;;6.60;2.70;;;20.00;1.00;;;;;;5027250;28;20443;-79
2022/08/28 02:37:00;;;;;;;7.00;3.10;;;20.00;1.00;;;;;;5026362;28;20447;-79
2022/08/28 02:39:28;;;;;;;6.10;3.43;;;20.00;1.00;;;;;;5032218;28;20433;-79
2022/08/28 02:41:58;;;;;;;4.97;2.93;;;20.00;1.00;;;;;;5025942;28;20209;-79
2022/08/28 02:44:28;;;;;;;9.97;2.73;;;20.00;1.00;;;;;;5034442;28;20930;-79
2022/08/28 02:46:59;;;;;;;4.40;2.60;;;20.10;1.00;;;;;;5035762;28;20789;-79
2022/08/28 02:49:29;;;;;;;8.57;2.70;;;20.00;1.00;;;;;;5035766;28;20488;-79
2022/08/28 02:52:11;;;;;;;4.73;2.80;;;20.00;1.00;;;;;;5023480;28;20417;-79
2022/08/28 02:54:46;;;;;;;4.30;2.90;;;20.00;1.00;;;;;;5036000;28;20860;-79
2022/08/28 02:57:39;;;;;;;7.80;3.10;;;20.00;1.00;;;;;;5030213;28;20401;-79
2022/08/28 03:00:27;;;;;;;6.83;2.73;;;20.00;1.00;;;;;;5021268;28;20401;-79
2022/08/28 03:03:04;;;;;;;4.83;3.20;;;20.00;1.00;;;;;;5017069;28;20375;-79
2022/08/28 03:05:52;;;;;;;7.60;3.20;;;20.00;1.00;;;;;;5029948;28;20438;-79
2022/08/28 03:08:29;;;;;;;4.77;2.83;;;20.00;1.00;;;;;;5031651;28;20393;-79
2022/08/28 03:10:55;;;;;;;9.07;3.07;;;20.00;1.00;;;;;;5030708;28;20451;-73
2022/08/28 03:13:21;;;;;;;7.57;2.83;;;20.00;1.00;;;;;;5033881;28;20431;-73
2022/08/28 03:15:47;;;;;;;6.17;2.90;;;20.00;1.00;;;;;;5020044;28;20465;-73
2022/08/28 03:18:17;;;;;;;9.73;3.67;;;20.00;1.00;;;;;;5031126;28;20417;-73
2022/08/28 03:20:44;;;;;;;8.43;2.50;;;20.00;1.00;;;;;;5024674;28;20421;-73
2022/08/28 03:23:26;;;;;;;7.80;3.50;;;20.00;1.00;;;;;;5019749;28;20456;-73
2022/08/28 03:26:00;;;;;;;6.43;2.90;;;20.00;1.00;;;;;;5024742;28;20405;-73
2022/08/28 03:28:31;;;;;;;6.07;2.83;;;20.00;1.00;;;;;;5021691;28;20497;-73
2022/08/28 03:30:58;;;;;;;11.33;2.80;;;20.00;1.00;;;;;;5017484;28;20447;-73
2022/08/28 03:33:25;;;;;;;5.33;3.07;;;20.00;1.00;;;;;;5032953;28;20438;-73
2022/08/28 03:35:51;;;;;;;3.73;2.50;;;20.00;1.00;;;;;;5027986;28;20466;-73
2022/08/28 03:38:18;;;;;;;7.33;2.97;;;20.00;1.00;;;;;;5018630;28;20535;-73
2022/08/28 03:40:52;;;;;;;10.20;2.80;;;20.00;1.00;;;;;;5035283;28;20399;-79
2022/08/28 03:43:23;;;;;;;4.23;2.60;;;20.00;1.00;;;;;;5030398;28;20784;-79
2022/08/28 03:45:58;;;;;;;7.13;2.83;;;20.00;1.00;;;;;;5030336;28;20533;-79
2022/08/28 03:48:32;;;;;;;10.40;3.10;;;20.00;1.00;;;;;;5036052;28;20907;-80
2022/08/28 03:50:59;;;;;;;14.97;2.90;;;19.90;1.00;;;;;;5020656;28;20524;-79
2022/08/28 03:53:28;;;;;;;3.77;2.27;;;19.90;1.00;;;;;;5027738;28;20423;-79
2022/08/28 03:55:55;;;;;;;6.10;3.13;;;19.90;1.00;;;;;;5032314;28;20456;-79
2022/08/28 03:58:28;;;;;;;5.47;2.63;;;19.90;1.00;;;;;;5019024;28;20934;-79
2022/08/28 04:00:58;;;;;;;8.30;2.70;;;19.90;1.00;;;;;;5024356;28;20853;-79
2022/08/28 04:03:40;;;;;;;8.50;3.00;;;19.90;1.00;;;;;;5018975;28;20940;-79
2022/08/28 04:06:10;;;;;;;6.20;2.70;;;20.00;1.00;;;;;;5035202;28;20383;-79
2022/08/28 04:08:58;;;;;;;9.80;2.70;;;19.90;1.00;;;;;;5019256;28;20432;-79
2022/08/28 04:11:28;;;;;;;6.70;2.60;;;19.90;1.00;;;;;;5027343;28;20450;-79
2022/08/28 04:13:58;;;;;;;6.10;2.47;;;19.90;1.00;;;;;;5022202;28;20428;-79
2022/08/28 04:16:28;;;;;;;5.00;2.70;;;19.90;1.00;;;;;;5029751;28;20587;-79
2022/08/28 04:18:58;;;;;;;13.47;2.50;;;19.90;1.00;;;;;;5032904;28;20541;-79
2022/08/28 04:21:24;;;;;;;5.87;2.80;;;19.90;1.00;;;;;;5032979;28;20387;-79
2022/08/28 04:23:51;;;;;;;11.33;2.83;;;19.90;1.00;;;;;;5017700;28;20470;-79
2022/08/28 04:26:22;;;;;;;9.30;2.37;;;19.90;1.00;;;;;;5028900;28;20965;-73
2022/08/28 04:28:53;;;;;;;4.20;2.50;;;19.90;1.00;;;;;;5016681;28;20403;-73
2022/08/28 04:31:20;;;;;;;10.37;3.23;;;19.90;1.00;;;;;;5022825;28;20774;-73
2022/08/28 04:33:46;;;;;;;3.30;2.47;;;20.00;1.00;;;;;;5022727;28;20459;-73
2022/08/28 04:36:14;;;;;;;5.03;2.40;;;19.90;1.00;;;;;;5028468;28;20455;-73
2022/08/28 04:38:41;;;;;;;5.47;2.30;;;19.90;1.00;;;;;;5016101;28;20402;-73
2022/08/28 04:41:40;;;;;;;5.07;2.13;;;19.90;1.00;;;;;;5022274;28;20889;-79
2022/08/28 04:44:16;;;;;;;6.43;2.57;;;19.90;1.00;;;;;;5033551;28;20746;-79
2022/08/28 04:46:46;;;;;;;7.53;2.53;;;19.80;1.00;;;;;;5024737;28;20925;-79
2022/08/28 04:49:22;;;;;;;3.47;2.33;;;19.80;1.00;;;;;;5016220;28;20391;-79
2022/08/28 04:52:04;;;;;;;9.57;2.97;;;19.80;1.00;;;;;;5025063;28;20777;-79
2022/08/28 04:54:40;;;;;;;6.17;2.60;;;19.90;1.00;;;;;;5030995;28;20483;-80
2022/08/28 04:57:06;;;;;;;6.47;2.60;;;19.80;1.00;;;;;;5026140;28;20382;-76
2022/08/28 04:59:46;;;;;;;2.93;2.27;;;19.80;1.00;;;;;;5016721;28;20387;-76
2022/08/28 05:02:16;;;;;;;8.00;2.93;;;19.80;1.00;;;;;;5025370;28;20420;-77
2022/08/28 05:04:46;;;;;;;12.30;2.90;;;19.80;1.00;;;;;;5027366;28;20878;-76
2022/08/28 05:07:16;;;;;;;5.40;2.60;;;19.80;1.00;;;;;;5026987;28;20813;-77
2022/08/28 05:09:53;;;;;;;6.03;2.50;;;19.80;1.00;;;;;;5091624;28;20518;-76
2022/08/28 05:12:19;;;;;;;5.80;2.17;;;19.80;1.00;;;;;;5067539;28;20923;-75
2022/08/28 05:14:52;;;;;;;7.60;2.93;;;19.90;1.00;;;;;;5080970;28;20413;-76
2022/08/28 05:17:22;;;;;;;12.63;2.53;;;19.80;1.00;;;;;;5070539;28;20185;-76
2022/08/28 05:19:53;;;;;;;8.20;2.93;;;19.90;1.00;;;;;;5070241;28;20904;-78
2022/08/28 05:22:51;;;;;;;12.90;2.90;;;19.90;1.00;;;;;;5070009;28;20875;-78
2022/08/28 05:25:25;;;;;;;6.47;2.70;;;19.90;1.00;;;;;;5062754;28;20393;-78
2022/08/28 05:27:52;;;;;;;6.27;2.93;;;20.00;1.00;;;;;;5070303;28;20891;-78
2022/08/28 05:30:36;;;;;;;6.93;2.50;;;20.00;1.00;;;;;;5079579;28;20453;-78
2022/08/28 05:33:39;;;;;;;13.07;2.93;;;20.00;1.00;;;;;;5071657;28;20895;-78
2022/08/28 05:36:11;;;;;;;8.23;2.70;;;20.00;1.00;;;;;;5085660;28;20428;-78
2022/08/28 05:38:46;;;;;;;9.13;2.10;;;20.00;1.00;;;;;;5073191;28;20431;-78
2022/08/28 05:41:46;;;;;;;6.87;2.90;;;20.00;1.00;;;;;;5083142;28;20409;-78
2022/08/28 05:44:16;;;;;;;4.53;2.60;;;19.90;1.00;;;;;;5074942;28;20403;-78
2022/08/28 05:46:52;;;;;;;8.23;2.40;;;19.90;1.00;;;;;;5081832;28;20448;-78
2022/08/28 05:49:34;;;;;;;4.70;2.37;;;19.90;1.00;;;;;;5069912;28;20463;-78
2022/08/28 05:52:00;;;;;;;6.27;2.50;;;19.90;1.00;;;;;;5083994;28;20449;-78
2022/08/28 05:54:28;;;;;;;11.53;2.00;;;19.80;1.00;;;;;;5073210;28;20403;-78
2022/08/28 05:57:04;;;;;;;5.43;2.53;;;19.90;1.00;;;;;;5070376;28;20768;-78
2022/08/28 05:59:30;;;;;;;12.33;3.30;;;19.80;1.00;;;;;;5078459;28;20401;-78
2022/08/28 06:01:58;;;;;;;4.50;2.50;;;19.90;1.00;;;;;;5075362;28;20533;-78
2022/08/28 06:04:28;;;;;;;7.90;2.80;;;20.00;1.00;;;;;;5081698;28;20559;-78
2022/08/28 06:06:54;;;;;;;8.57;2.43;;;20.10;1.00;;;;;;5079742;28;20512;-78
2022/08/28 06:09:27;;;;;;;6.50;2.00;;;20.40;1.00;;;;;;5065118;28;20481;-78
2022/08/28 06:11:54;;;;;;;4.97;2.07;;;20.50;1.00;;;;;;5070415;28;20438;-79
2022/08/28 06:14:21;;;;;;;7.63;2.37;;;20.70;1.00;;;;;;5073774;28;20430;-79
2022/08/28 06:16:59;;;;;;;10.40;2.47;;;20.90;1.00;;;;;;5073935;28;20405;-78
2022/08/28 06:19:40;;;;;;;12.73;2.30;;;21.10;1.00;;;;;;5077952;28;20407;-78
2022/08/28 06:22:11;;;;;;;6.10;2.40;;;21.20;1.00;;;;;;5060054;28;20441;-78
2022/08/28 06:24:40;;;;;;;4.60;1.93;;;21.40;1.00;;;;;;5050310;28;20893;-78
2022/08/28 06:27:16;;;;;;;5.37;2.47;;;21.50;1.00;;;;;;5068465;28;20458;-78
2022/08/28 06:29:52;;;;;;;3.73;2.20;;;21.50;1.00;;;;;;5060520;28;20989;-79
2022/08/28 06:32:22;;;;;;;7.53;2.33;;;21.60;1.00;;;;;;5054564;28;20417;-78
2022/08/28 06:34:48;;;;;;;7.20;2.60;;;21.70;1.00;;;;;;5069748;28;20444;-78
2022/08/28 06:37:28;;;;;;;6.70;2.30;;;21.60;1.00;;;;;;5069225;28;20454;-78
2022/08/28 06:39:58;;;;;;;5.63;2.13;;;21.70;1.00;;;;;;5052488;28;20539;-78
2022/08/28 06:42:34;;;;;;;5.97;2.70;;;21.80;1.00;;;;;;5056591;28;20434;-78
2022/08/28 06:44:59;;;;;;;13.10;2.67;;;21.80;1.00;;;;;;5056595;28;20381;-78
2022/08/28 06:47:34;;;;;;;11.23;2.30;;;21.70;1.00;;;;;;5068645;28;20420;-78
2022/08/28 06:50:36;;;;;;;8.13;2.20;;;21.70;1.00;;;;;;5055493;28;20192;-78
2022/08/28 06:53:04;;;;;;;6.20;2.23;;;21.80;1.00;;;;;;5055428;28;20917;-78
2022/08/28 06:55:30;;;;;;;8.60;2.10;;;21.80;1.00;;;;;;5055629;28;20407;-78
2022/08/28 06:57:56;;;;;;;6.70;2.33;;;21.80;1.00;;;;;;5067301;28;20552;-78
2022/08/28 07:00:45;;;;;;;9.87;2.47;;;21.90;1.00;;;;;;5062230;28;20193;-79
2022/08/28 07:03:16;;;;;;;9.70;2.37;;;22.10;1.00;;;;;;5063910;28;20182;-79
2022/08/28 07:05:46;;;;;;;7.23;2.00;;;22.20;1.00;;;;;;5050266;28;20433;-78
2022/08/28 07:08:11;;;;;;;10.70;2.60;;;22.20;1.00;;;;;;5046602;28;20475;-79
2022/08/28 07:10:37;;;;;;;9.33;1.80;;;22.30;1.00;;;;;;5059362;28;20441;-79
2022/08/28 07:13:22;;;;;;;5.30;2.60;;;22.40;1.00;;;;;;5047030;28;20172;-79
2022/08/28 07:15:48;;;;;;;8.63;2.30;;;22.60;1.00;;;;;;5049166;28;20217;-79
2022/08/28 07:18:14;;;;;;;5.47;2.40;;;22.60;1.00;;;;;;5047842;28;20939;-78
2022/08/28 07:20:40;;;;;;;4.30;1.93;;;22.70;1.00;;;;;;5063479;28;20426;-79
2022/08/28 07:23:06;;;;;;;9.10;2.37;;;22.80;1.00;;;;;;5071962;28;20486;-79
2022/08/28 07:25:32;;;;;;;13.40;2.50;;;22.90;1.00;;;;;;5064823;28;20180;-78
2022/08/28 07:27:59;;;;;;;9.53;1.80;;;23.10;1.00;;;;;;5055082;28;20552;-77
2022/08/28 07:30:28;;;;;;;4.93;1.80;;;23.20;1.00;;;;;;5065179;28;20314;-77
2022/08/28 07:33:04;;;;;;;7.20;2.10;;;23.20;1.00;;;;;;5052475;28;20791;-77
2022/08/28 07:35:29;;;;;;;12.30;3.60;;;23.20;1.00;;;;;;5060505;28;20402;-77
2022/08/28 07:37:58;;;;;;;6.83;2.03;;;23.20;1.00;;;;;;5066987;28;20422;-77
2022/08/28 07:40:29;;;;;;;7.30;2.10;;;23.00;1.00;;;;;;5063530;28;20565;-78
2022/08/28 07:45:43;;;;;;;8.20;2.70;;;22.80;1.00;;;;;;5064381;28;20572;-79
2022/08/28 07:48:10;;;;;;;10.07;3.07;;;22.70;1.00;;;;;;5063195;28;20427;-79
2022/08/28 07:50:40;;;;;;;5.60;1.90;;;22.60;1.00;;;;;;5052583;28;20437;-79
2022/08/28 07:53:10;;;;;;;10.40;2.70;;;22.40;1.00;;;;;;5056460;28;20515;-79
2022/08/28 07:55:52;;;;;;;7.63;2.10;;;22.40;1.00;;;;;;5057617;28;20413;-79
2022/08/28 07:58:19;;;;;;;4.97;2.10;;;22.40;1.00;;;;;;5067447;28;20412;-79
2022/08/28 08:00:45;;;;;;;9.93;2.50;;;22.60;1.00;;;;;;5054764;28;20422;-79
2022/08/28 08:03:39;;;;;;;7.60;2.10;;;22.70;1.00;;;;;;5066817;28;20420;-79
2022/08/28 08:06:27;;;;;;;6.67;2.17;;;22.80;1.00;;;;;;5053684;28;20439;-79
2022/08/28 08:09:13;;;;;;;6.67;2.50;;;22.80;1.00;;;;;;5062591;28;21044;-79
2022/08/28 08:12:10;;;;;;;9.60;2.73;;;23.00;1.00;;;;;;5065288;28;20429;-79
2022/08/28 08:17:58;;;;;;;7.17;2.47;;;23.20;1.00;;;;;;5052014;28;20427;-87
2022/08/28 08:23:47;;;;;;;3.63;1.80;;;23.30;1.00;;;;;;5051952;28;20443;-87
2022/08/28 08:29:36;;;;;;;5.00;1.90;;;23.40;1.00;;;;;;5054958;28;20461;-82
2022/08/28 08:32:11;;;;;;;6.00;2.50;;;23.30;1.00;;;;;;5052430;28;20932;-81
2022/08/28 08:34:40;;;;;;;6.03;2.30;;;23.30;1.00;;;;;;5067449;28;20433;-81
2022/08/28 08:37:16;;;;;;;7.47;2.17;;;23.40;1.00;;;;;;5065610;28;21006;-80
2022/08/28 08:39:42;;;;;;;7.80;2.50;;;23.50;1.00;;;;;;5047308;28;20805;-71
2022/08/28 08:42:30;;;;;;;5.47;1.93;;;23.60;1.00;;;;;;5053176;28;20513;-71
2022/08/28 08:44:59;;;;;;;9.33;2.40;;;23.60;1.00;;;;;;5061876;28;20449;-77
2022/08/28 08:47:40;;;;;;;11.83;2.30;;;23.60;1.00;;;;;;5070668;28;20412;-77
2022/08/28 08:50:30;;;;;;;5.30;2.03;;;23.70;1.00;;;;;;5064209;28;20437;-77
2022/08/28 08:53:16;;;;;;;3.67;1.93;;;23.70;1.00;;;;;;5049980;28;20406;-78
2022/08/28 08:55:46;;;;;;;13.07;2.90;;;23.80;1.00;;;;;;5058858;28;20770;-79
2022/08/28 08:58:41;;;;;;;3.40;2.10;;;23.80;1.00;;;;;;5073937;28;20395;-80
2022/08/28 09:01:16;;;;;;;10.80;2.40;;;23.90;1.00;;;;;;5051048;28;20498;-80
2022/08/28 09:04:33;;;;;;;8.80;2.40;;;24.00;1.00;;;;;;5060196;28;20414;-79
2022/08/28 09:07:18;;;;;;;11.43;2.47;;;24.00;1.00;;;;;;5069824;28;20906;-79
2022/08/28 09:09:54;;;;;;;8.77;2.67;;;23.90;1.00;;;;;;5058457;28;20471;-82
2022/08/28 09:12:58;;;;;;;8.50;2.33;;;24.00;1.00;;;;;;5055712;28;20418;-83
2022/08/28 09:15:37;;;;;;;8.50;2.40;;;24.10;1.00;;;;;;5060078;28;20408;-81
2022/08/28 09:18:12;;;;;;;7.53;2.83;;;24.10;1.00;;;;;;5066814;28;20976;-80
2022/08/28 09:20:39;;;;;;;12.57;2.70;;;24.30;1.00;;;;;;5063233;28;20820;-79
2022/08/28 09:23:10;;;;;;;6.13;2.10;;;24.40;1.00;;;;;;5052866;28;20431;-79
2022/08/28 09:25:51;;;;;;;5.03;2.40;;;24.50;1.00;;;;;;5064164;28;20954;-79
2022/08/28 09:28:39;;;;;;;5.27;2.40;;;24.60;1.00;;;;;;5067179;28;20501;-79
2022/08/28 09:31:30;;;;;;;10.47;2.87;;;24.70;1.00;;;;;;5052786;28;20519;-80
2022/08/28 09:34:18;;;;;;;11.30;2.90;;;24.70;1.00;;;;;;5064569;28;20438;-80
2022/08/28 09:37:23;;;;;;;15.57;2.67;;;24.70;1.00;;;;;;5050789;28;20499;-79
2022/08/28 09:40:18;;;;;;;7.87;2.73;;;24.70;1.00;;;;;;5052868;28;20821;-79
2022/08/28 09:46:15;;;;;;;6.00;2.77;;;24.80;1.00;;;;;;5050853;28;20420;-79
2022/08/28 09:48:42;;;;;;;5.13;2.17;;;25.00;1.00;;;;;;5049986;28;20451;-79
2022/08/28 09:51:26;;;;;;;6.10;2.40;;;25.10;1.00;;;;;;5057854;28;20413;-79
2022/08/28 09:54:33;;;;;;;11.03;3.10;;;25.20;1.00;;;;;;5046168;28;20429;-80
2022/08/28 09:57:04;;;;;;;5.93;2.33;;;25.40;1.00;;;;;;5036875;28;20791;-82
2022/08/28 09:59:34;;;;;;;4.90;2.10;;;25.30;1.00;;;;;;5049729;28;20493;-84
2022/08/28 10:06:25;;;;;;;6.87;2.33;;;25.40;1.00;;;;;;5055631;28;20521;-83
2022/08/28 10:09:28;;;;;;;5.47;2.13;;;25.50;1.00;;;;;;4996065;28;20548;-85
2022/08/28 10:15:57;;;;;;;11.80;2.13;;;26.00;1.00;;;;;;5014825;28;20412;-85
2022/08/28 10:18:47;;;;;;;6.10;2.67;;;25.90;1.00;;;;;;5014446;28;20427;-85
2022/08/28 10:21:34;;;;;;;5.73;1.87;;;26.10;1.00;;;;;;5029290;28;20425;-77
2022/08/28 10:24:04;;;;;;;6.47;2.10;;;26.20;1.00;;;;;;5014741;28;20432;-74
2022/08/28 10:26:51;;;;;;;3.67;2.20;;;26.20;1.00;;;;;;5027645;28;20436;-75
2022/08/28 10:36:05;;;;;;;4.73;2.50;;;26.50;1.00;;;;;;5020915;28;20408;-77
2022/08/28 10:38:45;;;;;;;9.40;2.83;;;26.50;1.00;;;;;;5033410;28;20405;-77
2022/08/28 10:41:22;;;;;;;6.27;2.30;;;26.70;1.00;;;;;;5014233;28;20423;-77
2022/08/28 10:43:53;;;;;;;7.63;2.07;;;26.80;1.00;;;;;;5052567;28;20765;-76
2022/08/28 10:46:34;;;;;;;4.73;2.03;;;26.80;1.00;;;;;;5056312;28;20438;-81
2022/08/28 10:49:28;;;;;;;7.80;2.57;;;26.60;1.00;;;;;;5055615;28;20440;-81
2022/08/28 10:52:04;;;;;;;6.00;1.93;;;26.40;1.00;;;;;;5062676;28;20402;-80
2022/08/28 10:55:23;;;;;;;5.93;2.50;;;26.30;1.00;;;;;;5056601;28;20416;-82
2022/08/28 10:57:58;;;;;;;4.97;2.10;;;26.30;1.00;;;;;;5033769;28;20429;-80
2022/08/28 11:00:27;;;;;;;5.97;1.93;;;26.40;1.00;;;;;;5022307;28;20921;-79
2022/08/28 11:03:02;;;;;;;5.70;2.27;;;26.50;1.00;;;;;;5016329;28;20414;-79
2022/08/28 11:05:52;;;;;;;3.90;2.23;;;26.40;1.00;;;;;;5036849;28;20990;-79
2022/08/28 11:08:31;;;;;;;11.40;2.10;;;26.40;1.00;;;;;;5032961;28;20511;-79
2022/08/28 11:10:59;;;;;;;6.17;2.60;;;26.50;1.00;;;;;;5046635;28;20490;-79
2022/08/28 11:13:54;;;;;;;13.10;1.80;;;26.60;1.00;;;;;;5050808;28;20424;-78
2022/08/28 11:16:24;;;;;;;5.33;2.30;;;26.70;1.00;;;;;;4957464;28;20420;-75
2022/08/28 11:19:10;;;;;;;5.93;2.00;;;26.70;1.00;;;;;;4956791;28;20436;-75
2022/08/28 11:21:47;;;;;;;7.93;2.20;;;26.90;1.00;;;;;;4958869;28;20422;-75
2022/08/28 11:24:24;;;;;;;7.27;2.30;;;27.00;1.00;;;;;;4944475;28;20439;-74
2022/08/28 11:27:04;;;;;;;6.00;2.13;;;27.10;1.00;;;;;;4961194;28;20434;-75
2022/08/28 11:29:58;;;;;;;4.70;1.97;;;27.40;1.00;;;;;;4969211;28;20472;-75
2022/08/28 11:32:50;;;;;;;5.03;2.27;;;27.60;1.00;;;;;;4987911;28;20428;-75
2022/08/28 11:35:20;;;;;;;10.90;2.70;;;27.80;1.00;;;;;;4993745;28;20421;-75
2022/08/28 11:37:51;;;;;;;5.90;2.00;;;28.00;1.00;;;;;;4994546;28;20435;-75
2022/08/28 11:40:40;;;;;;;6.23;2.20;;;28.10;1.00;;;;;;4993444;28;20405;-75
2022/08/28 11:43:26;;;;;;;4.30;2.20;;;28.20;1.00;;;;;;4982472;28;20492;-75
2022/08/28 11:45:58;;;;;;;6.63;2.30;;;28.20;1.00;;;;;;4932326;29;20417;-79
2022/08/28 11:48:34;;;;;;;12.80;2.57;;;28.40;1.00;;;;;;4916471;29;20868;-80
2022/08/28 11:51:15;;;;;;;6.83;1.80;;;28.60;1.00;;;;;;4921804;29;20437;-80
2022/08/28 11:53:58;;;;;;;3.30;2.00;;;28.50;1.00;;;;;;4972403;28;20446;-81
2022/08/28 11:56:32;;;;;;;6.70;2.20;;;28.60;1.00;;;;;;4993043;28;21136;-80
2022/08/28 11:59:24;;;;;;;2.83;2.30;;;28.90;1.00;;;;;;4981331;28;20438;-80
2022/08/28 12:01:50;;;;;;;9.20;3.20;;;29.00;1.00;;;;;;4984448;28;20817;-75
2022/08/28 12:04:22;;;;;;;12.47;2.60;;;28.80;1.00;;;;;;5004488;28;20974;-75
2022/08/28 12:06:49;;;;;;;12.27;2.30;;;29.00;1.00;;;;;;4998978;28;20518;-74
2022/08/28 12:09:43;;;;;;;7.47;2.10;;;29.10;1.00;;;;;;5011924;28;20556;-75
2022/08/28 12:12:31;;;;;;;7.00;2.23;;;29.40;1.00;;;;;;4992920;28;20435;-75
2022/08/28 12:15:30;;;;;;;5.23;2.60;;;29.60;1.00;;;;;;5007513;28;20434;-80
2022/08/28 12:18:11;;;;;;;3.50;1.67;;;29.60;1.00;;;;;;4992409;28;20435;-80
2022/08/28 12:20:59;;;;;;;6.83;2.40;;;29.60;1.00;;;;;;5006575;28;20787;-80
2022/08/28 12:23:54;;;;;;;7.17;2.00;;;29.50;1.00;;;;;;5036468;28;20417;-80
2022/08/28 12:26:43;;;;;;;5.77;2.00;;;29.40;1.00;;;;;;5053400;28;20435;-80
2022/08/28 12:29:34;;;;;;;8.13;2.00;;;29.40;1.00;;;;;;5050441;28;20471;-80
2022/08/28 12:32:11;;;;;;;6.57;2.17;;;29.50;1.00;;;;;;5048422;28;20523;-75
2022/08/28 12:34:55;;;;;;;7.40;2.27;;;29.50;1.00;;;;;;5049833;28;20477;-74
2022/08/28 12:37:30;;;;;;;3.83;2.03;;;29.20;1.00;;;;;;5051072;28;20432;-74
2022/08/28 12:40:03;;;;;;;4.10;1.83;;;29.20;1.00;;;;;;5062015;28;20414;-73
2022/08/28 12:42:32;;;;;;;3.63;2.07;;;29.10;1.00;;;;;;5058976;28;20424;-73
2022/08/28 12:45:08;;;;;;;6.73;2.20;;;29.00;1.00;;;;;;5074197;28;20423;-80
2022/08/28 12:47:42;;;;;;;4.53;2.00;;;29.00;1.00;;;;;;5055175;28;20407;-79
2022/08/28 12:50:46;;;;;;;5.00;2.70;;;29.00;1.00;;;;;;5058260;28;20431;-79
2022/08/28 12:53:37;;;;;;;4.83;2.13;;;29.00;1.00;;;;;;5052567;28;20482;-79
2022/08/28 12:56:04;;;;;;;2.60;1.87;;;29.00;1.00;;;;;;5033564;28;20750;-79
2022/08/28 12:58:33;;;;;;;8.90;2.40;;;28.90;1.00;;;;;;5033651;28;20501;-79
2022/08/28 13:01:06;;;;;;;4.77;2.43;;;28.90;1.00;;;;;;5046200;28;20903;-76
2022/08/28 13:03:53;;;;;;;5.40;2.47;;;28.90;1.00;;;;;;5054290;28;20435;-76
2022/08/28 13:06:32;;;;;;;4.07;2.53;;;29.00;1.00;;;;;;5066608;28;20888;-76
2022/08/28 13:09:02;;;;;;;4.20;2.63;;;29.10;1.00;;;;;;5064417;28;20472;-77
2022/08/28 13:11:37;;;;;;;5.27;3.00;;;29.00;1.00;;;;;;5058641;28;20406;-76
2022/08/28 13:14:41;;;;;;;4.50;2.67;;;29.10;1.00;;;;;;5073438;28;20392;-79
2022/08/28 13:17:12;;;;;;;4.17;2.60;;;29.10;1.00;;;;;;5041698;28;20916;-72
2022/08/28 13:19:38;;;;;;;4.03;2.20;;;29.20;1.00;;;;;;5053343;28;20520;-72
2022/08/28 13:22:08;;;;;;;4.73;2.50;;;29.40;1.00;;;;;;5052950;28;20416;-72
2022/08/28 13:24:34;;;;;;;6.90;2.87;;;29.40;1.00;;;;;;5057668;28;20821;-72
2022/08/28 13:27:06;;;;;;;11.57;2.97;;;29.40;1.00;;;;;;5064117;28;20510;-71
2022/08/28 13:29:34;;;;;;;16.30;4.00;;;29.50;1.00;;;;;;5053168;28;20222;-71
2022/08/28 13:32:14;;;;;;;9.97;3.03;;;29.50;1.00;;;;;;5060740;28;20429;-72
2022/08/28 13:34:40;;;;;;;5.40;2.83;;;29.60;1.00;;;;;;5070409;28;20416;-72
2022/08/28 13:37:08;;;;;;;7.57;2.70;;;29.60;1.00;;;;;;5057156;28;20800;-72
2022/08/28 13:39:36;;;;;;;5.60;2.80;;;29.60;1.00;;;;;;5057119;28;20188;-72
2022/08/28 13:42:10;;;;;;;5.00;2.60;;;29.70;1.00;;;;;;5058447;28;20765;-73
2022/08/28 13:44:52;;;;;;;5.80;3.03;;;29.70;1.00;;;;;;5063699;28;20512;-72
2022/08/28 13:47:18;;;;;;;3.37;2.30;;;29.70;1.00;;;;;;5037334;28;20428;-72
2022/08/28 13:49:45;;;;;;;4.93;2.90;;;29.50;1.00;;;;;;5065621;28;20872;-72
2022/08/28 13:52:11;;;;;;;7.13;3.03;;;29.40;1.00;;;;;;5056749;28;20745;-72
2022/08/28 13:54:37;;;;;;;5.20;2.90;;;29.50;1.00;;;;;;5071233;28;20446;-73
2022/08/28 13:57:04;;;;;;;5.93;2.47;;;29.70;1.00;;;;;;5068858;28;20204;-72
2022/08/28 13:59:30;;;;;;;4.13;2.50;;;29.90;1.00;;;;;;5065829;28;20432;-73
2022/08/28 14:04:52;;;;;;;4.40;2.57;;;30.10;1.00;;;;;;5070082;28;20783;-73
2022/08/28 14:07:18;;;;;;;5.57;2.57;;;30.30;1.00;;;;;;5068318;28;20423;-75
2022/08/28 14:09:44;;;;;;;7.43;2.53;;;30.20;1.00;;;;;;5062861;28;20475;-73
2022/08/28 14:12:10;;;;;;;8.77;3.00;;;30.30;1.00;;;;;;5056966;28;20412;-73
2022/08/28 14:14:37;;;;;;;6.60;2.83;;;30.30;1.00;;;;;;5055123;28;20180;-73
2022/08/28 14:17:03;;;;;;;10.90;3.30;;;30.20;1.00;;;;;;5068395;28;20423;-73